createdAt,value
2018-04-06T00:01:48.399Z,15.83
2018-04-06T00:04:15.890Z,19.67
2018-04-06T00:06:43.346Z,27.07
2018-04-06T00:09:10.736Z,35.93
2018-04-06T00:11:38.123Z,22.77
2018-04-06T00:14:05.627Z,22.87
2018-04-06T00:16:33.019Z,15.83
2018-04-06T00:19:00.418Z,22.00
2018-04-06T00:21:27.814Z,25.60
2018-04-06T00:23:55.202Z,27.37
2018-04-06T00:26:22.598Z,22.23
2018-04-06T00:28:49.986Z,24.20
2018-04-06T00:31:18.126Z,22.97
2018-04-06T00:33:45.515Z,20.50
2018-04-06T00:36:12.912Z,24.73
2018-04-06T00:38:40.299Z,26.63
2018-04-06T00:41:07.729Z,15.00
2018-04-06T00:43:35.187Z,13.30
2018-04-06T00:46:02.582Z,32.43
2018-04-06T00:48:29.317Z,30.17
2018-04-06T00:50:56.706Z,25.77
2018-04-06T00:53:36.195Z,20.63
2018-04-06T00:56:03.632Z,30.17
2018-04-06T00:58:31.964Z,21.33
2018-04-06T01:00:59.346Z,20.73
2018-04-06T01:03:26.734Z,24.07
2018-04-06T01:05:54.131Z,11.20
2018-04-06T01:08:21.631Z,22.67
2018-04-06T01:10:49.027Z,22.47
2018-04-06T01:13:16.426Z,20.43
2018-04-06T01:15:43.813Z,24.20
2018-04-06T01:18:11.257Z,23.50
2018-04-06T01:20:38.643Z,36.67
2018-04-06T01:23:06.070Z,26.03
2018-04-06T01:25:33.459Z,22.07
2018-04-06T01:28:00.855Z,20.90
2018-04-06T01:30:28.238Z,19.20
2018-04-06T01:32:55.631Z,15.50
2018-04-06T01:35:23.019Z,21.23
2018-04-06T01:37:50.416Z,22.67
2018-04-06T01:40:17.794Z,22.80
2018-04-06T01:42:45.197Z,21.23
2018-04-06T01:45:12.670Z,20.30
2018-04-06T01:47:40.143Z,30.03
2018-04-06T01:50:07.587Z,30.93
2018-04-06T01:52:35.053Z,20.30
2018-04-06T01:55:02.434Z,30.47
2018-04-06T01:57:29.834Z,28.93
2018-04-06T01:59:57.267Z,20.60
2018-04-06T02:02:24.614Z,15.60
2018-04-06T02:04:51.999Z,25.77
2018-04-06T02:07:19.395Z,20.60
2018-04-06T02:09:46.807Z,30.00
2018-04-06T02:12:14.198Z,14.80
2018-04-06T02:14:41.595Z,18.30
2018-04-06T02:17:09.615Z,14.90
2018-04-06T02:19:37.062Z,17.87
2018-04-06T02:22:04.466Z,17.40
2018-04-06T02:24:31.905Z,15.57
2018-04-06T02:26:59.275Z,17.50
2018-04-06T02:29:26.671Z,32.47
2018-04-06T02:31:54.160Z,12.90
2018-04-06T02:34:21.559Z,28.33
2018-04-06T02:36:48.942Z,19.23
2018-04-06T02:39:17.183Z,19.53
2018-04-06T02:41:44.598Z,19.63
2018-04-06T02:44:11.982Z,12.77
2018-04-06T02:46:39.376Z,12.30
2018-04-06T02:49:06.790Z,25.33
2018-04-06T02:51:34.161Z,21.30
2018-04-06T02:54:01.568Z,19.60
2018-04-06T02:56:28.943Z,25.43
2018-04-06T02:58:56.338Z,24.13
2018-04-06T03:01:23.724Z,17.10
2018-04-06T03:03:51.124Z,37.50
2018-04-06T03:06:18.514Z,11.50
2018-04-06T03:08:45.914Z,15.50
2018-04-06T03:11:13.306Z,16.47
2018-04-06T03:13:40.703Z,16.17
2018-04-06T03:16:08.091Z,24.47
2018-04-06T03:18:35.486Z,17.87
2018-04-06T03:21:02.978Z,18.63
2018-04-06T03:23:30.370Z,23.00
2018-04-06T03:25:57.759Z,18.07
2018-04-06T03:28:25.155Z,21.00
2018-04-06T03:30:52.611Z,38.13
2018-04-06T03:33:19.991Z,18.53
2018-04-06T03:35:47.391Z,32.07
2018-04-06T03:38:14.775Z,22.67
2018-04-06T03:40:42.158Z,21.10
2018-04-06T03:43:10.162Z,15.53
2018-04-06T03:45:37.560Z,18.77
2018-04-06T03:48:04.956Z,19.90
2018-04-06T03:50:32.351Z,21.80
2018-04-06T03:52:59.738Z,13.97
2018-04-06T03:55:27.134Z,23.43
2018-04-06T03:57:54.614Z,16.40
2018-04-06T04:00:22.014Z,11.57
2018-04-06T04:02:49.427Z,24.67
2018-04-06T04:05:17.723Z,22.27
2018-04-06T04:07:45.106Z,10.30
2018-04-06T04:10:12.494Z,8.70
2018-04-06T04:12:39.898Z,14.80
2018-04-06T04:15:07.280Z,27.80
2018-04-06T04:17:34.666Z,12.03
2018-04-06T04:20:02.072Z,25.00
2018-04-06T04:22:29.459Z,12.00
2018-04-06T04:24:56.867Z,18.60
2018-04-06T04:27:24.243Z,9.80
2018-04-06T04:29:51.710Z,28.27
2018-04-06T04:32:19.166Z,14.83
2018-04-06T04:34:46.574Z,16.70
2018-04-06T04:37:13.961Z,11.33
2018-04-06T04:39:41.342Z,18.53
2018-04-06T04:42:08.744Z,17.77
2018-04-06T04:44:36.130Z,25.53
2018-04-06T04:47:03.590Z,14.83
2018-04-06T04:49:31.047Z,21.00
2018-04-06T04:51:58.502Z,21.93
2018-04-06T04:54:25.958Z,16.37
2018-04-06T04:56:53.415Z,18.97
2018-04-06T04:59:20.822Z,17.83
2018-04-06T05:01:48.331Z,12.73
2018-04-06T05:04:15.710Z,20.07
2018-04-06T05:06:43.114Z,10.47
2018-04-06T05:09:10.587Z,22.80
2018-04-06T05:11:37.978Z,10.53
2018-04-06T05:14:05.377Z,24.40
2018-04-06T05:16:32.766Z,7.50
2018-04-06T05:19:00.152Z,12.50
2018-04-06T05:21:27.568Z,13.00
2018-04-06T05:23:55.028Z,9.30
2018-04-06T05:26:22.426Z,15.83
2018-04-06T05:28:49.826Z,7.60
2018-04-06T05:31:17.219Z,10.83
2018-04-06T05:33:44.638Z,10.60
2018-04-06T05:36:12.039Z,11.43
2018-04-06T05:38:39.534Z,11.20
2018-04-06T05:41:06.850Z,15.07
2018-04-06T05:43:34.250Z,12.43
2018-04-06T05:46:01.639Z,10.30
2018-04-06T05:48:29.036Z,14.30
2018-04-06T05:50:56.422Z,10.10
2018-04-06T05:53:23.878Z,9.80
2018-04-06T05:55:51.334Z,17.50
2018-04-06T05:58:18.775Z,13.07
2018-04-06T06:00:46.155Z,14.20
2018-04-06T06:03:13.551Z,11.73
2018-04-06T06:05:40.960Z,10.37
2018-04-06T06:08:08.355Z,13.57
2018-04-06T06:10:36.743Z,20.10
2018-04-06T06:13:04.138Z,22.30
2018-04-06T06:15:31.599Z,12.10
2018-04-06T06:17:58.997Z,14.73
2018-04-06T06:20:26.387Z,11.87
2018-04-06T06:22:53.783Z,15.10
2018-04-06T06:25:21.174Z,11.87
2018-04-06T06:27:48.570Z,17.77
2018-04-06T06:30:15.968Z,14.90
2018-04-06T06:32:43.385Z,12.90
2018-04-06T06:35:10.841Z,19.80
2018-04-06T06:37:38.231Z,14.23
2018-04-06T06:40:05.656Z,17.97
2018-04-06T06:42:33.102Z,12.93
2018-04-06T06:45:00.567Z,19.00
2018-04-06T06:47:28.018Z,17.27
2018-04-06T06:49:55.543Z,17.43
2018-04-06T06:52:23.037Z,19.60
2018-04-06T06:54:50.437Z,19.10
2018-04-06T06:57:17.827Z,27.30
2018-04-06T06:59:45.303Z,16.30
2018-04-06T07:02:13.114Z,13.30
2018-04-06T07:04:40.569Z,18.97
2018-04-06T07:07:08.027Z,16.00
2018-04-06T07:09:35.486Z,17.73
2018-04-06T07:12:02.874Z,10.60
2018-04-06T07:14:30.296Z,11.40
2018-04-06T07:16:57.682Z,19.80
2018-04-06T07:19:25.078Z,13.40
2018-04-06T07:21:52.467Z,16.80
2018-04-06T07:24:19.863Z,20.23
2018-04-06T07:26:48.186Z,12.97
2018-04-06T07:29:15.646Z,17.03
2018-04-06T07:31:43.043Z,16.17
2018-04-06T07:34:10.463Z,15.73
2018-04-06T07:36:37.854Z,13.53
2018-04-06T07:39:06.152Z,16.90
2018-04-06T07:41:33.547Z,13.13
2018-04-06T07:44:00.955Z,15.40
2018-04-06T07:46:28.464Z,12.50
2018-04-06T07:48:55.918Z,18.90
2018-04-06T07:51:23.302Z,12.00
2018-04-06T07:53:50.699Z,17.23
2018-04-06T07:56:18.086Z,20.17
2018-04-06T07:58:45.700Z,17.07
2018-04-06T08:01:13.194Z,24.50
2018-04-06T08:03:40.591Z,19.33
2018-04-06T08:06:07.982Z,18.20
2018-04-06T08:08:35.374Z,15.67
2018-04-06T08:11:02.770Z,18.43
2018-04-06T08:13:30.220Z,13.13
2018-04-06T08:15:57.582Z,22.90
2018-04-06T08:18:24.978Z,14.30
2018-04-06T08:20:52.364Z,19.80
2018-04-06T08:23:19.763Z,11.60
2018-04-06T08:25:47.150Z,11.07
2018-04-06T08:28:15.477Z,17.53
2018-04-06T08:30:42.941Z,18.03
2018-04-06T08:33:10.399Z,19.13
2018-04-06T08:35:37.869Z,16.13
2018-04-06T08:38:05.255Z,14.10
2018-04-06T08:40:32.662Z,13.93
2018-04-06T08:43:00.084Z,24.73
2018-04-06T08:45:27.575Z,20.83
2018-04-06T08:47:55.139Z,17.60
2018-04-06T08:50:22.518Z,18.77
2018-04-06T08:52:49.906Z,18.87
2018-04-06T08:55:17.415Z,8.20
2018-04-06T08:57:44.836Z,12.00
2018-04-06T09:00:12.238Z,17.00
2018-04-06T09:02:39.645Z,13.23
2018-04-06T09:05:07.046Z,12.30
2018-04-06T09:07:34.542Z,26.23
2018-04-06T09:10:01.947Z,13.17
2018-04-06T09:12:29.355Z,17.80
2018-04-06T09:14:56.779Z,23.43
2018-04-06T09:17:24.158Z,9.90
2018-04-06T09:19:51.566Z,21.40
2018-04-06T09:22:18.981Z,9.73
2018-04-06T09:24:46.373Z,10.80
2018-04-06T09:27:13.767Z,12.73
2018-04-06T09:29:41.167Z,17.87
2018-04-06T09:32:08.553Z,10.80
2018-04-06T09:34:35.954Z,10.53
2018-04-06T09:37:03.424Z,11.90
2018-04-06T09:39:30.826Z,9.10
2018-04-06T09:41:58.214Z,7.13
2018-04-06T09:44:25.607Z,3.73
2018-04-06T09:46:53.039Z,7.30
2018-04-06T09:49:20.434Z,13.57
2018-04-06T09:51:47.823Z,10.03
2018-04-06T09:54:15.221Z,7.40
2018-04-06T09:56:42.623Z,10.67
2018-04-06T09:59:10.075Z,14.47
2018-04-06T10:01:37.555Z,10.30
2018-04-06T10:04:04.999Z,5.97
2018-04-06T10:06:32.382Z,11.57
2018-04-06T10:08:59.787Z,11.40
2018-04-06T10:11:27.199Z,5.83
2018-04-06T10:13:54.621Z,11.13
2018-04-06T10:16:22.070Z,8.13
2018-04-06T10:18:49.479Z,6.73
2018-04-06T10:21:16.870Z,4.43
2018-04-06T10:23:44.259Z,2.00
2018-04-06T10:26:11.655Z,4.80
2018-04-06T10:28:39.121Z,7.20
2018-04-06T10:31:06.574Z,1.67
2018-04-06T10:33:34.066Z,10.53
2018-04-06T10:36:01.465Z,14.57
2018-04-06T10:38:28.845Z,5.70
2018-04-06T10:40:56.298Z,15.33
2018-04-06T10:43:23.700Z,7.97
2018-04-06T10:45:51.867Z,7.43
2018-04-06T10:48:19.326Z,7.27
2018-04-06T10:50:46.822Z,10.90
2018-04-06T10:53:14.206Z,4.83
2018-04-06T10:55:41.600Z,4.13
2018-04-06T10:58:09.066Z,7.13
2018-04-06T11:00:36.480Z,5.40
2018-04-06T11:03:03.875Z,7.10
2018-04-06T11:05:31.266Z,7.10
2018-04-06T11:07:58.678Z,8.93
2018-04-06T11:10:26.139Z,4.03
2018-04-06T11:12:53.518Z,4.93
2018-04-06T11:15:20.920Z,5.03
2018-04-06T11:17:48.302Z,7.83
2018-04-06T11:20:15.766Z,7.27
2018-04-06T11:22:43.235Z,7.10
2018-04-06T11:25:10.625Z,5.63
2018-04-06T11:27:38.043Z,5.80
2018-04-06T11:30:05.519Z,7.73
2018-04-06T11:32:32.902Z,9.47
2018-04-06T11:35:00.290Z,8.50
2018-04-06T11:37:27.683Z,12.30
2018-04-06T11:39:55.122Z,4.30
2018-04-06T11:42:22.503Z,8.67
2018-04-06T11:44:49.907Z,8.87
2018-04-06T11:47:17.335Z,4.30
2018-04-06T11:49:45.649Z,6.13
2018-04-06T11:52:13.034Z,5.93
2018-04-06T11:54:40.462Z,6.07
2018-04-06T11:57:07.838Z,7.17
2018-04-06T11:59:35.279Z,5.97
2018-04-06T12:02:02.671Z,7.03
2018-04-06T12:04:30.055Z,7.03
2018-04-06T12:06:57.446Z,3.03
2018-04-06T12:09:24.905Z,8.23
2018-04-06T12:11:52.358Z,3.90
2018-04-06T12:14:19.747Z,8.77
2018-04-06T12:16:47.148Z,5.70
2018-04-06T12:19:14.627Z,2.60
2018-04-06T12:21:42.015Z,4.43
2018-04-06T12:24:09.430Z,4.67
2018-04-06T12:26:36.821Z,1.57
2018-04-06T12:29:04.206Z,2.53
2018-04-06T12:31:31.611Z,15.53
2018-04-06T12:33:59.010Z,3.17
2018-04-06T12:36:26.394Z,5.43
2018-04-06T12:38:54.419Z,6.90
2018-04-06T12:41:21.817Z,7.80
2018-04-06T12:43:49.197Z,6.33
2018-04-06T12:46:16.595Z,10.10
2018-04-06T12:48:43.983Z,7.47
2018-04-06T12:51:11.375Z,5.53
2018-04-06T12:53:38.811Z,7.20
2018-04-06T12:56:06.200Z,1.83
2018-04-06T12:58:33.590Z,4.30
2018-04-06T13:01:01.000Z,8.77
2018-04-06T13:03:28.390Z,3.47
2018-04-06T13:05:55.782Z,4.43
2018-04-06T13:08:23.171Z,4.10
2018-04-06T13:10:50.659Z,5.13
2018-04-06T13:13:18.323Z,6.20
2018-04-06T13:15:45.774Z,5.63
2018-04-06T13:18:13.250Z,9.00
2018-04-06T13:20:40.630Z,3.53
2018-04-06T13:23:08.038Z,5.93
2018-04-06T13:25:35.438Z,4.83
2018-04-06T13:28:02.823Z,1.70
2018-04-06T13:30:30.215Z,7.40
2018-04-06T13:32:57.667Z,2.47
2018-04-06T13:35:25.107Z,3.87
2018-04-06T13:37:52.495Z,4.53
2018-04-06T13:40:19.908Z,3.07
2018-04-06T13:42:47.314Z,4.23
2018-04-06T13:45:14.702Z,3.40
2018-04-06T13:47:42.094Z,7.17
2018-04-06T13:50:09.565Z,2.90
2018-04-06T13:52:36.963Z,5.83
2018-04-06T13:55:04.383Z,5.80
2018-04-06T13:57:31.847Z,4.93
2018-04-06T13:59:59.229Z,2.87
2018-04-06T14:02:26.654Z,3.27
2018-04-06T14:04:54.110Z,7.77
2018-04-06T14:07:21.564Z,9.40
2018-04-06T14:09:48.943Z,3.70
2018-04-06T14:12:16.379Z,11.70
2018-04-06T14:14:43.834Z,6.40
2018-04-06T14:17:11.230Z,3.07
2018-04-06T14:19:38.622Z,3.57
2018-04-06T14:22:06.007Z,6.87
2018-04-06T14:24:33.396Z,5.63
2018-04-06T14:27:00.806Z,3.67
2018-04-06T14:29:28.198Z,5.20
2018-04-06T14:31:55.595Z,6.10
2018-04-06T14:34:22.978Z,9.10
2018-04-06T14:36:50.366Z,4.03
2018-04-06T14:39:17.804Z,2.10
2018-04-06T14:41:45.222Z,1.57
2018-04-06T14:44:12.611Z,1.30
2018-04-06T14:46:40.063Z,6.40
2018-04-06T14:49:07.458Z,3.30
2018-04-06T14:51:34.852Z,1.43
2018-04-06T14:54:02.302Z,4.33
2018-04-06T14:56:29.766Z,2.80
2018-04-06T14:58:57.158Z,2.80
2018-04-06T15:01:24.584Z,1.87
2018-04-06T15:03:51.983Z,7.77
2018-04-06T15:06:19.378Z,5.23
2018-04-06T15:08:46.758Z,5.00
2018-04-06T15:11:14.156Z,2.00
2018-04-06T15:13:41.540Z,3.23
2018-04-06T15:16:09.011Z,3.57
2018-04-06T15:18:36.479Z,2.67
2018-04-06T15:21:03.863Z,2.70
2018-04-06T15:23:31.282Z,3.90
2018-04-06T15:25:58.678Z,4.50
2018-04-06T15:28:26.067Z,2.23
2018-04-06T15:30:53.553Z,8.87
2018-04-06T15:33:20.932Z,4.70
2018-04-06T15:35:48.341Z,2.43
2018-04-06T15:38:15.715Z,3.67
2018-04-06T15:40:43.110Z,1.70
2018-04-06T15:43:10.531Z,4.97
2018-04-06T15:45:37.939Z,4.80
2018-04-06T15:48:05.344Z,1.63
2018-04-06T15:50:32.731Z,14.80
2018-04-06T15:53:00.122Z,3.20
2018-04-06T15:55:27.616Z,6.10
2018-04-06T15:57:55.006Z,3.73
2018-04-06T16:00:22.399Z,1.30
2018-04-06T16:02:49.796Z,1.23
2018-04-06T16:05:17.200Z,2.27
2018-04-06T16:07:44.595Z,1.53
2018-04-06T16:10:12.092Z,4.30
2018-04-06T16:12:39.478Z,1.83
2018-04-06T16:15:06.863Z,2.50
2018-04-06T16:17:34.253Z,0.90
2018-04-06T16:20:01.634Z,3.17
2018-04-06T16:22:29.037Z,3.63
2018-04-06T16:24:56.427Z,3.63
2018-04-06T16:27:23.825Z,1.73
2018-04-06T16:29:51.210Z,8.53
2018-04-06T16:32:18.603Z,1.10
2018-04-06T16:34:45.988Z,2.00
2018-04-06T16:37:13.374Z,1.90
2018-04-06T16:39:40.770Z,3.20
2018-04-06T16:42:08.196Z,4.60
2018-04-06T16:44:35.591Z,1.57
2018-04-06T16:47:02.983Z,5.23
2018-04-06T16:49:30.402Z,2.93
2018-04-06T16:51:57.807Z,6.10
2018-04-06T16:54:25.279Z,6.07
2018-04-06T16:56:52.671Z,4.00
2018-04-06T16:59:20.063Z,3.13
2018-04-06T17:01:47.451Z,2.83
2018-04-06T17:04:14.910Z,2.83
2018-04-06T17:06:42.331Z,2.03
2018-04-06T17:09:09.719Z,3.90
2018-04-06T17:11:37.139Z,3.17
2018-04-06T17:14:04.519Z,1.93
2018-04-06T17:16:31.910Z,3.20
2018-04-06T17:18:59.333Z,3.43
2018-04-06T17:21:26.719Z,7.90
2018-04-06T17:23:54.113Z,6.73
2018-04-06T17:26:21.505Z,2.90
2018-04-06T17:28:48.897Z,2.60
2018-04-06T17:31:16.509Z,2.53
2018-04-06T17:33:43.913Z,1.47
2018-04-06T17:36:11.306Z,1.53
2018-04-06T17:38:38.860Z,3.63
2018-04-06T17:41:06.353Z,8.30
2018-04-06T17:43:33.771Z,2.83
2018-04-06T17:46:01.190Z,3.03
2018-04-06T17:48:28.606Z,3.60
2018-04-06T17:50:55.974Z,2.30
2018-04-06T17:53:23.398Z,4.90
2018-04-06T17:55:50.867Z,3.80
2018-04-06T17:58:18.315Z,1.70
2018-04-06T18:00:45.699Z,3.53
2018-04-06T18:03:13.094Z,1.33
2018-04-06T18:05:40.582Z,2.53
2018-04-06T18:08:08.043Z,10.03
2018-04-06T18:10:35.436Z,7.67
2018-04-06T18:13:02.848Z,3.80
2018-04-06T18:15:30.312Z,4.70
2018-04-06T18:17:57.833Z,1.70
2018-04-06T18:20:25.237Z,5.00
2018-04-06T18:22:52.626Z,3.50
2018-04-06T18:25:20.039Z,3.67
2018-04-06T18:27:47.435Z,6.57
2018-04-06T18:30:14.852Z,2.60
2018-04-06T18:32:42.243Z,1.40
2018-04-06T18:35:09.663Z,2.00
2018-04-06T18:37:37.055Z,3.40
2018-04-06T18:40:04.458Z,5.80
2018-04-06T18:42:31.858Z,6.17
2018-04-06T18:44:59.247Z,3.13
2018-04-06T18:47:26.670Z,6.00
2018-04-06T18:49:54.090Z,4.73
2018-04-06T18:52:21.668Z,3.40
2018-04-06T18:54:49.102Z,4.20
2018-04-06T18:57:16.515Z,4.27
2018-04-06T18:59:43.924Z,3.70
2018-04-06T19:02:11.380Z,5.57
2018-04-06T19:04:38.843Z,1.90
2018-04-06T19:07:06.287Z,7.37
2018-04-06T19:09:33.675Z,3.23
2018-04-06T19:12:01.065Z,4.40
2018-04-06T19:14:28.486Z,3.60
2018-04-06T19:16:55.887Z,6.10
2018-04-06T19:19:23.281Z,2.93
2018-04-06T19:21:50.678Z,4.77
2018-04-06T19:24:18.065Z,3.10
2018-04-06T19:26:45.675Z,7.70
2018-04-06T19:29:13.098Z,4.57
2018-04-06T19:31:40.506Z,6.00
2018-04-06T19:34:07.924Z,4.40
2018-04-06T19:36:35.383Z,4.70
2018-04-06T19:39:02.763Z,5.53
2018-04-06T19:41:30.147Z,6.53
2018-04-06T19:43:57.543Z,4.70
2018-04-06T19:46:24.935Z,4.90
2018-04-06T19:48:52.311Z,6.77
2018-04-06T19:51:19.707Z,3.50
2018-04-06T19:53:47.154Z,4.90
2018-04-06T19:56:14.544Z,8.83
2018-04-06T19:58:41.970Z,5.10
2018-04-06T20:01:09.419Z,4.30
2018-04-06T20:03:36.810Z,9.33
2018-04-06T20:06:04.218Z,5.80
2018-04-06T20:08:31.695Z,4.87
2018-04-06T20:10:59.075Z,10.00
2018-04-06T20:13:26.494Z,8.10
2018-04-06T20:15:53.950Z,7.30
2018-04-06T20:18:21.349Z,8.40
2018-04-06T20:20:48.755Z,5.60
2018-04-06T20:23:16.219Z,8.07
2018-04-06T20:25:43.604Z,6.37
2018-04-06T20:28:10.994Z,8.43
2018-04-06T20:30:38.485Z,7.80
2018-04-06T20:33:05.878Z,9.57
2018-04-06T20:35:33.291Z,5.73
2018-04-06T20:38:00.683Z,7.37
2018-04-06T20:40:28.073Z,3.80
2018-04-06T20:42:55.558Z,7.60
2018-04-06T20:45:23.037Z,14.80
2018-04-06T20:47:50.417Z,9.93
2018-04-06T20:50:17.831Z,8.40
2018-04-06T20:52:45.219Z,5.47
2018-04-06T20:55:12.610Z,4.50
2018-04-06T20:57:40.007Z,5.60
2018-04-06T21:00:07.455Z,11.00
2018-04-06T21:02:34.861Z,8.83
2018-04-06T21:05:02.244Z,11.60
2018-04-06T21:07:29.715Z,8.50
2018-04-06T21:09:57.174Z,5.37
2018-04-06T21:12:24.566Z,7.00
2018-04-06T21:14:52.731Z,11.57
2018-04-06T21:17:20.124Z,5.40
2018-04-06T21:19:48.433Z,4.63
2018-04-06T21:22:15.831Z,3.50
2018-04-06T21:24:43.246Z,9.73
2018-04-06T21:27:10.643Z,5.30
2018-04-06T21:29:38.026Z,6.80
2018-04-06T21:32:05.418Z,3.20
2018-04-06T21:34:32.805Z,5.87
2018-04-06T21:37:00.226Z,15.43
2018-04-06T21:39:27.606Z,7.57
2018-04-06T21:41:54.999Z,6.23
2018-04-06T21:44:22.392Z,2.90
2018-04-06T21:46:49.843Z,7.33
2018-04-06T21:49:17.231Z,4.13
2018-04-06T21:51:44.619Z,4.90
2018-04-06T21:54:12.114Z,9.10
2018-04-06T21:56:39.503Z,10.57
2018-04-06T21:59:06.890Z,5.13
2018-04-06T22:01:34.379Z,4.20
2018-04-06T22:04:01.835Z,4.33
2018-04-06T22:06:29.219Z,4.83
2018-04-06T22:08:56.647Z,6.47
2018-04-06T22:11:24.094Z,3.40
2018-04-06T22:13:51.490Z,2.70
2018-04-06T22:16:18.875Z,8.73
2018-04-06T22:18:46.363Z,3.70
2018-04-06T22:21:13.831Z,2.53
2018-04-06T22:23:41.232Z,3.57
2018-04-06T22:26:08.607Z,6.40
2018-04-06T22:28:36.005Z,7.00
2018-04-06T22:31:03.446Z,4.73
2018-04-06T22:33:30.902Z,6.43
2018-04-06T22:35:58.277Z,6.90
2018-04-06T22:38:25.679Z,5.13
2018-04-06T22:40:53.051Z,5.17
2018-04-06T22:43:20.443Z,4.20
2018-04-06T22:45:47.879Z,5.77
2018-04-06T22:48:15.275Z,10.40
2018-04-06T22:50:42.691Z,6.37
2018-04-06T22:53:10.148Z,30.03
2018-04-06T22:55:37.526Z,6.90
2018-04-06T22:58:04.935Z,8.63
2018-04-06T23:00:32.322Z,9.50
2018-04-06T23:02:59.762Z,7.80
2018-04-06T23:05:27.141Z,4.43
2018-04-06T23:07:54.531Z,3.40
2018-04-06T23:10:21.918Z,5.27
2018-04-06T23:12:49.382Z,4.37
2018-04-06T23:15:16.776Z,4.63
2018-04-06T23:17:44.169Z,7.13
2018-04-06T23:20:11.551Z,3.23
2018-04-06T23:22:38.938Z,4.87
2018-04-06T23:25:07.182Z,6.23
2018-04-06T23:27:34.567Z,4.90
2018-04-06T23:30:01.955Z,5.70
2018-04-06T23:32:29.335Z,3.33
2018-04-06T23:34:56.725Z,4.53
2018-04-06T23:37:24.109Z,8.23
2018-04-06T23:39:51.510Z,6.90
2018-04-06T23:42:18.894Z,5.87
2018-04-06T23:44:46.289Z,2.13
2018-04-06T23:47:13.799Z,13.50
2018-04-06T23:49:41.186Z,8.90
2018-04-06T23:52:08.587Z,9.20
2018-04-06T23:54:35.981Z,2.93
2018-04-06T23:57:03.363Z,4.27
2018-04-06T23:59:30.756Z,7.10
